sensor_id;sensor_type;location;lat;lon;timestamp;P1;durP1;ratioP1;P2;durP2;ratioP2
48853;SDS011;34673;52.808;17.856;2023-06-22T00:00:11;26.67;;;22.35;;
48853;SDS011;34673;52.808;17.856;2023-06-22T00:02:39;26.52;;;22.85;;
48853;SDS011;34673;52.808;17.856;2023-06-22T00:05:06;26.88;;;23.98;;
48853;SDS011;34673;52.808;17.856;2023-06-22T00:07:33;27.00;;;23.88;;
48853;SDS011;34673;52.808;17.856;2023-06-22T00:10:01;25.25;;;22.40;;
48853;SDS011;34673;52.808;17.856;2023-06-22T00:12:28;24.23;;;21.65;;
48853;SDS011;34673;52.808;17.856;2023-06-22T00:14:55;23.65;;;18.95;;
48853;SDS011;34673;52.808;17.856;2023-06-22T00:17:22;22.75;;;19.65;;
48853;SDS011;34673;52.808;17.856;2023-06-22T00:19:49;21.60;;;19.02;;
48853;SDS011;34673;52.808;17.856;2023-06-22T00:22:20;24.85;;;19.88;;
48853;SDS011;34673;52.808;17.856;2023-06-22T00:24:55;23.38;;;19.20;;
48853;SDS011;34673;52.808;17.856;2023-06-22T00:27:23;24.08;;;19.65;;
48853;SDS011;34673;52.808;17.856;2023-06-22T00:29:50;25.23;;;20.38;;
48853;SDS011;34673;52.808;17.856;2023-06-22T00:32:17;23.05;;;18.70;;
48853;SDS011;34673;52.808;17.856;2023-06-22T00:34:46;21.95;;;18.60;;
48853;SDS011;34673;52.808;17.856;2023-06-22T00:37:14;19.30;;;16.98;;
48853;SDS011;34673;52.808;17.856;2023-06-22T00:39:42;23.38;;;18.73;;
48853;SDS011;34673;52.808;17.856;2023-06-22T00:42:10;20.00;;;17.52;;
48853;SDS011;34673;52.808;17.856;2023-06-22T00:44:37;19.50;;;17.50;;
48853;SDS011;34673;52.808;17.856;2023-06-22T00:47:04;23.77;;;17.52;;
48853;SDS011;34673;52.808;17.856;2023-06-22T00:49:33;22.13;;;16.85;;
48853;SDS011;34673;52.808;17.856;2023-06-22T00:52:00;20.67;;;17.17;;
48853;SDS011;34673;52.808;17.856;2023-06-22T00:54:28;20.15;;;16.58;;
48853;SDS011;34673;52.808;17.856;2023-06-22T00:56:56;18.83;;;16.23;;
48853;SDS011;34673;52.808;17.856;2023-06-22T00:59:24;22.77;;;17.95;;
48853;SDS011;34673;52.808;17.856;2023-06-22T01:01:53;18.73;;;16.73;;
48853;SDS011;34673;52.808;17.856;2023-06-22T01:04:23;22.92;;;17.88;;
48853;SDS011;34673;52.808;17.856;2023-06-22T01:07:10;21.17;;;16.40;;
48853;SDS011;34673;52.808;17.856;2023-06-22T01:12:44;19.95;;;17.23;;
48853;SDS011;34673;52.808;17.856;2023-06-22T01:15:21;22.25;;;19.88;;
48853;SDS011;34673;52.808;17.856;2023-06-22T01:17:54;20.08;;;16.70;;
48853;SDS011;34673;52.808;17.856;2023-06-22T01:20:25;20.98;;;16.83;;
48853;SDS011;34673;52.808;17.856;2023-06-22T01:23:11;19.98;;;17.80;;
48853;SDS011;34673;52.808;17.856;2023-06-22T01:28:24;20.10;;;16.75;;
48853;SDS011;34673;52.808;17.856;2023-06-22T01:31:10;23.35;;;16.88;;
48853;SDS011;34673;52.808;17.856;2023-06-22T01:33:41;19.60;;;16.98;;
48853;SDS011;34673;52.808;17.856;2023-06-22T01:36:12;18.92;;;15.32;;
48853;SDS011;34673;52.808;17.856;2023-06-22T01:38:40;18.10;;;16.20;;
48853;SDS011;34673;52.808;17.856;2023-06-22T01:41:10;20.33;;;15.95;;
48853;SDS011;34673;52.808;17.856;2023-06-22T01:43:38;21.23;;;16.08;;
48853;SDS011;34673;52.808;17.856;2023-06-22T01:46:05;19.25;;;14.82;;
48853;SDS011;34673;52.808;17.856;2023-06-22T01:48:33;19.85;;;15.25;;
48853;SDS011;34673;52.808;17.856;2023-06-22T01:51:01;21.20;;;14.77;;
48853;SDS011;34673;52.808;17.856;2023-06-22T01:53:29;19.10;;;15.10;;
48853;SDS011;34673;52.808;17.856;2023-06-22T01:55:56;18.02;;;14.80;;
48853;SDS011;34673;52.808;17.856;2023-06-22T01:58:27;17.58;;;14.70;;
48853;SDS011;34673;52.808;17.856;2023-06-22T02:00:58;20.65;;;14.20;;
48853;SDS011;34673;52.808;17.856;2023-06-22T02:03:37;17.25;;;13.70;;
48853;SDS011;34673;52.808;17.856;2023-06-22T02:06:14;19.83;;;14.48;;
48853;SDS011;34673;52.808;17.856;2023-06-22T02:08:48;17.48;;;13.90;;
48853;SDS011;34673;52.808;17.856;2023-06-22T02:11:18;18.35;;;13.93;;
48853;SDS011;34673;52.808;17.856;2023-06-22T02:13:49;19.08;;;13.05;;
48853;SDS011;34673;52.808;17.856;2023-06-22T02:16:16;16.85;;;12.70;;
48853;SDS011;34673;52.808;17.856;2023-06-22T02:18:48;17.58;;;12.88;;
48853;SDS011;34673;52.808;17.856;2023-06-22T02:21:19;20.50;;;13.48;;
48853;SDS011;34673;52.808;17.856;2023-06-22T02:23:47;20.10;;;13.18;;
48853;SDS011;34673;52.808;17.856;2023-06-22T02:26:16;18.27;;;14.55;;
48853;SDS011;34673;52.808;17.856;2023-06-22T02:28:44;21.10;;;12.95;;
48853;SDS011;34673;52.808;17.856;2023-06-22T02:31:16;16.40;;;13.13;;
48853;SDS011;34673;52.808;17.856;2023-06-22T02:33:44;18.77;;;13.77;;
48853;SDS011;34673;52.808;17.856;2023-06-22T02:36:12;17.00;;;12.68;;
48853;SDS011;34673;52.808;17.856;2023-06-22T02:38:43;17.17;;;11.75;;
48853;SDS011;34673;52.808;17.856;2023-06-22T02:41:15;19.08;;;13.07;;
48853;SDS011;34673;52.808;17.856;2023-06-22T02:43:45;16.77;;;13.00;;
48853;SDS011;34673;52.808;17.856;2023-06-22T02:46:13;19.30;;;13.52;;
48853;SDS011;34673;52.808;17.856;2023-06-22T02:48:41;17.77;;;11.85;;
48853;SDS011;34673;52.808;17.856;2023-06-22T02:51:11;17.83;;;12.15;;
48853;SDS011;34673;52.808;17.856;2023-06-22T02:53:38;16.17;;;12.82;;
48853;SDS011;34673;52.808;17.856;2023-06-22T02:56:05;18.55;;;12.27;;
48853;SDS011;34673;52.808;17.856;2023-06-22T02:58:35;14.60;;;11.95;;
48853;SDS011;34673;52.808;17.856;2023-06-22T03:01:09;17.45;;;11.82;;
48853;SDS011;34673;52.808;17.856;2023-06-22T03:03:36;17.15;;;12.98;;
48853;SDS011;34673;52.808;17.856;2023-06-22T03:06:04;14.00;;;10.95;;
48853;SDS011;34673;52.808;17.856;2023-06-22T03:08:31;13.60;;;11.65;;
48853;SDS011;34673;52.808;17.856;2023-06-22T03:10:58;15.13;;;11.40;;
48853;SDS011;34673;52.808;17.856;2023-06-22T03:13:26;15.48;;;11.25;;
48853;SDS011;34673;52.808;17.856;2023-06-22T03:15:54;17.88;;;11.68;;
48853;SDS011;34673;52.808;17.856;2023-06-22T03:18:21;15.07;;;12.18;;
48853;SDS011;34673;52.808;17.856;2023-06-22T03:20:49;17.20;;;12.20;;
48853;SDS011;34673;52.808;17.856;2023-06-22T03:23:16;17.13;;;11.18;;
48853;SDS011;34673;52.808;17.856;2023-06-22T03:25:43;17.17;;;11.07;;
48853;SDS011;34673;52.808;17.856;2023-06-22T03:28:13;17.27;;;11.00;;
48853;SDS011;34673;52.808;17.856;2023-06-22T03:30:40;18.65;;;11.57;;
48853;SDS011;34673;52.808;17.856;2023-06-22T03:33:07;15.80;;;11.13;;
48853;SDS011;34673;52.808;17.856;2023-06-22T03:35:35;18.23;;;11.48;;
48853;SDS011;34673;52.808;17.856;2023-06-22T03:38:02;16.58;;;11.55;;
48853;SDS011;34673;52.808;17.856;2023-06-22T03:40:30;16.30;;;10.70;;
48853;SDS011;34673;52.808;17.856;2023-06-22T03:42:57;18.33;;;11.57;;
48853;SDS011;34673;52.808;17.856;2023-06-22T03:45:25;18.17;;;11.50;;
48853;SDS011;34673;52.808;17.856;2023-06-22T03:47:52;16.38;;;11.82;;
48853;SDS011;34673;52.808;17.856;2023-06-22T03:50:20;14.85;;;11.63;;
48853;SDS011;34673;52.808;17.856;2023-06-22T03:52:47;15.23;;;11.95;;
48853;SDS011;34673;52.808;17.856;2023-06-22T03:55:14;17.02;;;11.80;;
48853;SDS011;34673;52.808;17.856;2023-06-22T03:57:41;19.80;;;12.85;;
48853;SDS011;34673;52.808;17.856;2023-06-22T04:00:08;16.27;;;11.80;;
48853;SDS011;34673;52.808;17.856;2023-06-22T04:02:40;18.33;;;11.90;;
48853;SDS011;34673;52.808;17.856;2023-06-22T04:05:08;15.77;;;11.77;;
48853;SDS011;34673;52.808;17.856;2023-06-22T04:07:36;17.98;;;11.60;;
48853;SDS011;34673;52.808;17.856;2023-06-22T04:10:06;15.55;;;11.30;;
48853;SDS011;34673;52.808;17.856;2023-06-22T04:12:36;15.23;;;10.18;;
48853;SDS011;34673;52.808;17.856;2023-06-22T04:15:03;19.63;;;11.55;;
48853;SDS011;34673;52.808;17.856;2023-06-22T04:17:31;13.68;;;10.55;;
48853;SDS011;34673;52.808;17.856;2023-06-22T04:19:58;18.52;;;9.90;;
48853;SDS011;34673;52.808;17.856;2023-06-22T04:22:25;16.08;;;9.93;;
48853;SDS011;34673;52.808;17.856;2023-06-22T04:24:52;12.90;;;9.00;;
48853;SDS011;34673;52.808;17.856;2023-06-22T04:27:20;11.20;;;8.40;;
48853;SDS011;34673;52.808;17.856;2023-06-22T04:29:49;13.50;;;8.30;;
48853;SDS011;34673;52.808;17.856;2023-06-22T04:32:17;11.52;;;7.28;;
48853;SDS011;34673;52.808;17.856;2023-06-22T04:34:45;12.88;;;7.72;;
48853;SDS011;34673;52.808;17.856;2023-06-22T04:37:12;14.80;;;7.70;;
48853;SDS011;34673;52.808;17.856;2023-06-22T04:39:42;13.25;;;7.85;;
48853;SDS011;34673;52.808;17.856;2023-06-22T04:42:11;10.02;;;7.43;;
48853;SDS011;34673;52.808;17.856;2023-06-22T04:44:39;11.40;;;7.55;;
48853;SDS011;34673;52.808;17.856;2023-06-22T04:47:08;15.43;;;8.55;;
48853;SDS011;34673;52.808;17.856;2023-06-22T04:49:36;14.63;;;7.95;;
48853;SDS011;34673;52.808;17.856;2023-06-22T04:52:04;13.27;;;8.15;;
48853;SDS011;34673;52.808;17.856;2023-06-22T04:54:33;12.80;;;8.07;;
48853;SDS011;34673;52.808;17.856;2023-06-22T04:57:02;10.43;;;7.20;;
48853;SDS011;34673;52.808;17.856;2023-06-22T04:59:30;14.27;;;8.45;;
48853;SDS011;34673;52.808;17.856;2023-06-22T05:01:58;12.35;;;7.43;;
48853;SDS011;34673;52.808;17.856;2023-06-22T05:04:28;10.60;;;7.47;;
48853;SDS011;34673;52.808;17.856;2023-06-22T05:06:58;12.90;;;7.80;;
48853;SDS011;34673;52.808;17.856;2023-06-22T05:09:29;10.95;;;7.25;;
48853;SDS011;34673;52.808;17.856;2023-06-22T05:11:57;11.75;;;7.32;;
48853;SDS011;34673;52.808;17.856;2023-06-22T05:14:24;12.68;;;7.80;;
48853;SDS011;34673;52.808;17.856;2023-06-22T05:16:51;11.95;;;7.45;;
48853;SDS011;34673;52.808;17.856;2023-06-22T05:19:18;12.90;;;7.63;;
48853;SDS011;34673;52.808;17.856;2023-06-22T05:21:46;14.80;;;7.90;;
48853;SDS011;34673;52.808;17.856;2023-06-22T05:24:13;12.30;;;7.55;;
48853;SDS011;34673;52.808;17.856;2023-06-22T05:26:40;15.43;;;8.30;;
48853;SDS011;34673;52.808;17.856;2023-06-22T05:29:07;13.48;;;7.85;;
48853;SDS011;34673;52.808;17.856;2023-06-22T05:31:35;13.98;;;7.35;;
48853;SDS011;34673;52.808;17.856;2023-06-22T05:34:02;10.27;;;7.38;;
48853;SDS011;34673;52.808;17.856;2023-06-22T05:36:29;11.88;;;7.63;;
48853;SDS011;34673;52.808;17.856;2023-06-22T05:38:56;13.18;;;7.35;;
48853;SDS011;34673;52.808;17.856;2023-06-22T05:41:25;12.13;;;7.50;;
48853;SDS011;34673;52.808;17.856;2023-06-22T05:43:52;12.43;;;6.90;;
48853;SDS011;34673;52.808;17.856;2023-06-22T05:46:19;8.35;;;6.55;;
48853;SDS011;34673;52.808;17.856;2023-06-22T05:48:46;13.07;;;7.22;;
48853;SDS011;34673;52.808;17.856;2023-06-22T05:51:13;11.05;;;6.90;;
48853;SDS011;34673;52.808;17.856;2023-06-22T05:53:43;11.93;;;6.93;;
48853;SDS011;34673;52.808;17.856;2023-06-22T05:56:13;10.27;;;7.17;;
48853;SDS011;34673;52.808;17.856;2023-06-22T05:58:40;13.27;;;6.60;;
48853;SDS011;34673;52.808;17.856;2023-06-22T06:01:07;14.35;;;6.90;;
48853;SDS011;34673;52.808;17.856;2023-06-22T06:03:34;9.82;;;6.75;;
48853;SDS011;34673;52.808;17.856;2023-06-22T06:06:08;18.35;;;6.15;;
48853;SDS011;34673;52.808;17.856;2023-06-22T06:08:35;10.88;;;6.63;;
48853;SDS011;34673;52.808;17.856;2023-06-22T06:11:02;8.43;;;5.80;;
48853;SDS011;34673;52.808;17.856;2023-06-22T06:13:29;16.70;;;6.65;;
48853;SDS011;34673;52.808;17.856;2023-06-22T06:15:56;10.45;;;6.88;;
48853;SDS011;34673;52.808;17.856;2023-06-22T06:18:24;13.73;;;6.65;;
48853;SDS011;34673;52.808;17.856;2023-06-22T06:20:51;11.90;;;6.63;;
48853;SDS011;34673;52.808;17.856;2023-06-22T06:23:18;15.23;;;6.60;;
48853;SDS011;34673;52.808;17.856;2023-06-22T06:25:45;10.25;;;7.22;;
48853;SDS011;34673;52.808;17.856;2023-06-22T06:28:12;10.00;;;6.43;;
48853;SDS011;34673;52.808;17.856;2023-06-22T06:30:39;10.32;;;6.60;;
48853;SDS011;34673;52.808;17.856;2023-06-22T06:33:07;12.77;;;6.53;;
48853;SDS011;34673;52.808;17.856;2023-06-22T06:35:35;12.60;;;6.07;;
48853;SDS011;34673;52.808;17.856;2023-06-22T06:38:04;9.15;;;5.97;;
48853;SDS011;34673;52.808;17.856;2023-06-22T06:40:31;9.55;;;6.32;;
48853;SDS011;34673;52.808;17.856;2023-06-22T06:42:59;11.52;;;6.07;;
48853;SDS011;34673;52.808;17.856;2023-06-22T06:45:26;11.77;;;5.97;;
48853;SDS011;34673;52.808;17.856;2023-06-22T06:47:55;12.13;;;6.05;;
48853;SDS011;34673;52.808;17.856;2023-06-22T06:50:22;10.80;;;6.03;;
48853;SDS011;34673;52.808;17.856;2023-06-22T06:52:49;11.93;;;5.82;;
48853;SDS011;34673;52.808;17.856;2023-06-22T06:55:17;11.02;;;5.88;;
48853;SDS011;34673;52.808;17.856;2023-06-22T06:57:46;11.60;;;5.88;;
48853;SDS011;34673;52.808;17.856;2023-06-22T07:02:43;11.15;;;5.72;;
48853;SDS011;34673;52.808;17.856;2023-06-22T07:05:12;11.15;;;5.03;;
48853;SDS011;34673;52.808;17.856;2023-06-22T07:07:40;8.52;;;5.40;;
48853;SDS011;34673;52.808;17.856;2023-06-22T07:10:08;6.40;;;4.60;;
48853;SDS011;34673;52.808;17.856;2023-06-22T07:12:36;9.63;;;5.30;;
48853;SDS011;34673;52.808;17.856;2023-06-22T07:15:04;7.20;;;4.22;;
48853;SDS011;34673;52.808;17.856;2023-06-22T07:17:38;8.25;;;4.15;;
48853;SDS011;34673;52.808;17.856;2023-06-22T07:20:08;14.07;;;4.78;;
48853;SDS011;34673;52.808;17.856;2023-06-22T07:22:40;8.48;;;4.38;;
48853;SDS011;34673;52.808;17.856;2023-06-22T07:25:09;7.55;;;4.50;;
48853;SDS011;34673;52.808;17.856;2023-06-22T07:27:43;10.43;;;4.30;;
48853;SDS011;34673;52.808;17.856;2023-06-22T07:30:12;8.52;;;3.92;;
48853;SDS011;34673;52.808;17.856;2023-06-22T07:32:40;7.50;;;3.80;;
48853;SDS011;34673;52.808;17.856;2023-06-22T07:35:07;6.55;;;3.10;;
48853;SDS011;34673;52.808;17.856;2023-06-22T07:37:35;7.75;;;3.42;;
48853;SDS011;34673;52.808;17.856;2023-06-22T07:40:02;6.55;;;3.30;;
48853;SDS011;34673;52.808;17.856;2023-06-22T07:42:33;11.05;;;3.97;;
48853;SDS011;34673;52.808;17.856;2023-06-22T07:45:00;6.70;;;2.92;;
48853;SDS011;34673;52.808;17.856;2023-06-22T07:47:29;9.65;;;3.17;;
48853;SDS011;34673;52.808;17.856;2023-06-22T07:49:58;5.93;;;3.20;;
48853;SDS011;34673;52.808;17.856;2023-06-22T07:52:28;11.45;;;3.70;;
48853;SDS011;34673;52.808;17.856;2023-06-22T07:54:55;6.93;;;3.13;;
48853;SDS011;34673;52.808;17.856;2023-06-22T07:57:23;5.85;;;3.10;;
48853;SDS011;34673;52.808;17.856;2023-06-22T08:00:03;7.63;;;3.58;;
48853;SDS011;34673;52.808;17.856;2023-06-22T08:02:42;5.72;;;3.10;;
48853;SDS011;34673;52.808;17.856;2023-06-22T08:05:14;7.50;;;3.10;;
48853;SDS011;34673;52.808;17.856;2023-06-22T08:07:45;6.63;;;2.63;;
48853;SDS011;34673;52.808;17.856;2023-06-22T08:10:14;6.53;;;2.75;;
48853;SDS011;34673;52.808;17.856;2023-06-22T08:12:41;6.50;;;2.92;;
48853;SDS011;34673;52.808;17.856;2023-06-22T08:15:09;6.68;;;2.83;;
48853;SDS011;34673;52.808;17.856;2023-06-22T08:17:37;6.68;;;3.42;;
48853;SDS011;34673;52.808;17.856;2023-06-22T08:20:05;8.43;;;3.35;;
48853;SDS011;34673;52.808;17.856;2023-06-22T08:22:39;8.63;;;3.30;;
48853;SDS011;34673;52.808;17.856;2023-06-22T08:25:07;7.00;;;2.85;;
48853;SDS011;34673;52.808;17.856;2023-06-22T08:27:36;5.90;;;3.08;;
48853;SDS011;34673;52.808;17.856;2023-06-22T08:30:03;7.20;;;3.08;;
48853;SDS011;34673;52.808;17.856;2023-06-22T08:32:31;6.57;;;3.05;;
48853;SDS011;34673;52.808;17.856;2023-06-22T08:35:00;6.45;;;2.88;;
48853;SDS011;34673;52.808;17.856;2023-06-22T08:37:27;5.45;;;2.90;;
48853;SDS011;34673;52.808;17.856;2023-06-22T08:39:58;6.70;;;3.10;;
48853;SDS011;34673;52.808;17.856;2023-06-22T08:42:27;5.20;;;2.40;;
48853;SDS011;34673;52.808;17.856;2023-06-22T08:44:54;5.40;;;2.70;;
48853;SDS011;34673;52.808;17.856;2023-06-22T08:47:22;4.35;;;2.30;;
48853;SDS011;34673;52.808;17.856;2023-06-22T08:49:49;4.10;;;2.35;;
48853;SDS011;34673;52.808;17.856;2023-06-22T08:52:17;5.07;;;2.65;;
48853;SDS011;34673;52.808;17.856;2023-06-22T08:54:47;5.93;;;2.40;;
48853;SDS011;34673;52.808;17.856;2023-06-22T08:57:14;5.70;;;2.45;;
48853;SDS011;34673;52.808;17.856;2023-06-22T08:59:42;4.47;;;2.63;;
48853;SDS011;34673;52.808;17.856;2023-06-22T09:02:10;5.30;;;2.60;;
48853;SDS011;34673;52.808;17.856;2023-06-22T09:04:37;4.80;;;2.80;;
48853;SDS011;34673;52.808;17.856;2023-06-22T09:07:05;5.32;;;2.50;;
48853;SDS011;34673;52.808;17.856;2023-06-22T09:09:32;5.20;;;2.70;;
48853;SDS011;34673;52.808;17.856;2023-06-22T09:11:59;3.97;;;2.38;;
48853;SDS011;34673;52.808;17.856;2023-06-22T09:14:26;4.35;;;2.50;;
48853;SDS011;34673;52.808;17.856;2023-06-22T09:16:54;5.90;;;2.47;;
48853;SDS011;34673;52.808;17.856;2023-06-22T09:19:21;5.63;;;3.10;;
48853;SDS011;34673;52.808;17.856;2023-06-22T09:21:48;6.38;;;2.70;;
48853;SDS011;34673;52.808;17.856;2023-06-22T09:24:15;5.63;;;2.67;;
48853;SDS011;34673;52.808;17.856;2023-06-22T09:26:42;6.60;;;2.80;;
48853;SDS011;34673;52.808;17.856;2023-06-22T09:29:10;7.82;;;2.75;;
48853;SDS011;34673;52.808;17.856;2023-06-22T09:31:37;4.30;;;2.40;;
48853;SDS011;34673;52.808;17.856;2023-06-22T09:34:04;6.53;;;2.33;;
48853;SDS011;34673;52.808;17.856;2023-06-22T09:36:31;4.75;;;2.40;;
48853;SDS011;34673;52.808;17.856;2023-06-22T09:38:59;5.97;;;2.45;;
48853;SDS011;34673;52.808;17.856;2023-06-22T09:41:28;6.75;;;2.70;;
48853;SDS011;34673;52.808;17.856;2023-06-22T09:43:55;3.75;;;2.35;;
48853;SDS011;34673;52.808;17.856;2023-06-22T09:46:22;6.18;;;2.28;;
48853;SDS011;34673;52.808;17.856;2023-06-22T09:48:52;7.25;;;2.30;;
48853;SDS011;34673;52.808;17.856;2023-06-22T09:51:19;8.25;;;2.63;;
48853;SDS011;34673;52.808;17.856;2023-06-22T09:53:48;3.88;;;2.30;;
48853;SDS011;34673;52.808;17.856;2023-06-22T09:56:15;4.78;;;2.63;;
48853;SDS011;34673;52.808;17.856;2023-06-22T09:58:44;4.50;;;2.10;;
48853;SDS011;34673;52.808;17.856;2023-06-22T10:01:13;4.68;;;2.67;;
48853;SDS011;34673;52.808;17.856;2023-06-22T10:03:44;4.07;;;2.13;;
48853;SDS011;34673;52.808;17.856;2023-06-22T10:06:11;9.85;;;2.22;;
48853;SDS011;34673;52.808;17.856;2023-06-22T10:08:38;4.82;;;2.50;;
48853;SDS011;34673;52.808;17.856;2023-06-22T10:11:07;7.25;;;2.30;;
48853;SDS011;34673;52.808;17.856;2023-06-22T10:13:34;5.32;;;2.35;;
48853;SDS011;34673;52.808;17.856;2023-06-22T10:16:01;4.90;;;2.17;;
48853;SDS011;34673;52.808;17.856;2023-06-22T10:18:28;4.40;;;2.42;;
48853;SDS011;34673;52.808;17.856;2023-06-22T10:20:57;5.03;;;1.92;;
48853;SDS011;34673;52.808;17.856;2023-06-22T10:23:24;4.53;;;2.20;;
48853;SDS011;34673;52.808;17.856;2023-06-22T10:25:51;3.75;;;2.00;;
48853;SDS011;34673;52.808;17.856;2023-06-22T10:28:18;3.53;;;2.20;;
48853;SDS011;34673;52.808;17.856;2023-06-22T10:30:46;4.18;;;2.13;;
48853;SDS011;34673;52.808;17.856;2023-06-22T10:33:13;5.30;;;2.17;;
48853;SDS011;34673;52.808;17.856;2023-06-22T10:35:40;5.45;;;2.20;;
48853;SDS011;34673;52.808;17.856;2023-06-22T10:38:07;4.63;;;2.00;;
48853;SDS011;34673;52.808;17.856;2023-06-22T10:40:35;6.43;;;2.05;;
48853;SDS011;34673;52.808;17.856;2023-06-22T10:43:02;3.78;;;2.03;;
48853;SDS011;34673;52.808;17.856;2023-06-22T10:45:29;3.17;;;1.95;;
48853;SDS011;34673;52.808;17.856;2023-06-22T10:47:57;5.93;;;2.08;;
48853;SDS011;34673;52.808;17.856;2023-06-22T10:50:24;3.13;;;1.90;;
48853;SDS011;34673;52.808;17.856;2023-06-22T10:52:52;3.83;;;2.15;;
48853;SDS011;34673;52.808;17.856;2023-06-22T10:55:22;3.92;;;1.60;;
48853;SDS011;34673;52.808;17.856;2023-06-22T10:57:50;4.97;;;2.10;;
48853;SDS011;34673;52.808;17.856;2023-06-22T11:00:17;4.25;;;2.38;;
48853;SDS011;34673;52.808;17.856;2023-06-22T11:02:44;4.30;;;2.08;;
48853;SDS011;34673;52.808;17.856;2023-06-22T11:05:12;5.88;;;2.10;;
48853;SDS011;34673;52.808;17.856;2023-06-22T11:07:42;4.28;;;1.92;;
48853;SDS011;34673;52.808;17.856;2023-06-22T11:10:12;4.80;;;1.90;;
48853;SDS011;34673;52.808;17.856;2023-06-22T11:12:40;4.57;;;1.80;;
48853;SDS011;34673;52.808;17.856;2023-06-22T11:15:07;5.38;;;1.90;;
48853;SDS011;34673;52.808;17.856;2023-06-22T11:17:35;3.72;;;1.92;;
48853;SDS011;34673;52.808;17.856;2023-06-22T11:20:03;3.72;;;2.15;;
48853;SDS011;34673;52.808;17.856;2023-06-22T11:22:42;4.47;;;2.17;;
48853;SDS011;34673;52.808;17.856;2023-06-22T11:25:09;6.35;;;2.22;;
48853;SDS011;34673;52.808;17.856;2023-06-22T11:27:38;4.35;;;1.90;;
48853;SDS011;34673;52.808;17.856;2023-06-22T11:30:06;3.38;;;1.80;;
48853;SDS011;34673;52.808;17.856;2023-06-22T11:32:34;7.28;;;2.15;;
48853;SDS011;34673;52.808;17.856;2023-06-22T11:35:02;4.40;;;1.98;;
48853;SDS011;34673;52.808;17.856;2023-06-22T11:37:29;5.60;;;1.70;;
48853;SDS011;34673;52.808;17.856;2023-06-22T11:39:56;3.75;;;1.83;;
48853;SDS011;34673;52.808;17.856;2023-06-22T11:42:33;4.70;;;1.95;;
48853;SDS011;34673;52.808;17.856;2023-06-22T11:45:01;4.95;;;1.80;;
48853;SDS011;34673;52.808;17.856;2023-06-22T11:47:29;4.57;;;2.35;;
48853;SDS011;34673;52.808;17.856;2023-06-22T11:49:56;5.68;;;2.22;;
48853;SDS011;34673;52.808;17.856;2023-06-22T11:52:23;4.50;;;2.33;;
48853;SDS011;34673;52.808;17.856;2023-06-22T11:54:50;7.53;;;2.22;;
48853;SDS011;34673;52.808;17.856;2023-06-22T11:57:17;5.45;;;2.25;;
48853;SDS011;34673;52.808;17.856;2023-06-22T11:59:44;4.68;;;2.22;;
48853;SDS011;34673;52.808;17.856;2023-06-22T12:02:12;3.42;;;2.10;;
48853;SDS011;34673;52.808;17.856;2023-06-22T12:04:39;5.55;;;2.33;;
48853;SDS011;34673;52.808;17.856;2023-06-22T12:07:06;3.83;;;2.00;;
48853;SDS011;34673;52.808;17.856;2023-06-22T12:09:33;3.00;;;1.85;;
48853;SDS011;34673;52.808;17.856;2023-06-22T12:12:00;4.55;;;2.00;;
48853;SDS011;34673;52.808;17.856;2023-06-22T12:14:28;6.00;;;2.10;;
48853;SDS011;34673;52.808;17.856;2023-06-22T12:16:57;9.30;;;2.15;;
48853;SDS011;34673;52.808;17.856;2023-06-22T12:19:24;2.90;;;1.80;;
48853;SDS011;34673;52.808;17.856;2023-06-22T12:21:52;4.20;;;2.03;;
48853;SDS011;34673;52.808;17.856;2023-06-22T12:24:19;3.72;;;2.42;;
48853;SDS011;34673;52.808;17.856;2023-06-22T12:26:46;3.13;;;1.90;;
48853;SDS011;34673;52.808;17.856;2023-06-22T12:29:13;5.13;;;1.90;;
48853;SDS011;34673;52.808;17.856;2023-06-22T12:31:40;4.20;;;1.95;;
48853;SDS011;34673;52.808;17.856;2023-06-22T12:34:08;5.53;;;1.88;;
48853;SDS011;34673;52.808;17.856;2023-06-22T12:36:35;4.22;;;2.20;;
48853;SDS011;34673;52.808;17.856;2023-06-22T12:39:02;3.05;;;1.75;;
48853;SDS011;34673;52.808;17.856;2023-06-22T12:41:30;3.85;;;1.75;;
48853;SDS011;34673;52.808;17.856;2023-06-22T12:43:57;3.63;;;1.88;;
48853;SDS011;34673;52.808;17.856;2023-06-22T12:46:24;7.50;;;2.30;;
48853;SDS011;34673;52.808;17.856;2023-06-22T12:48:52;3.25;;;1.90;;
48853;SDS011;34673;52.808;17.856;2023-06-22T12:51:22;3.63;;;2.00;;
48853;SDS011;34673;52.808;17.856;2023-06-22T12:53:49;3.78;;;1.85;;
48853;SDS011;34673;52.808;17.856;2023-06-22T12:56:17;4.00;;;1.80;;
48853;SDS011;34673;52.808;17.856;2023-06-22T12:58:44;3.97;;;2.08;;
48853;SDS011;34673;52.808;17.856;2023-06-22T13:01:11;9.70;;;2.55;;
48853;SDS011;34673;52.808;17.856;2023-06-22T13:03:38;4.00;;;2.25;;
48853;SDS011;34673;52.808;17.856;2023-06-22T13:06:05;4.00;;;1.70;;
48853;SDS011;34673;52.808;17.856;2023-06-22T13:08:33;3.38;;;1.98;;
48853;SDS011;34673;52.808;17.856;2023-06-22T13:13:29;4.90;;;2.10;;
48853;SDS011;34673;52.808;17.856;2023-06-22T13:15:57;3.97;;;1.73;;
48853;SDS011;34673;52.808;17.856;2023-06-22T13:18:24;4.68;;;2.08;;
48853;SDS011;34673;52.808;17.856;2023-06-22T13:20:51;4.40;;;1.98;;
48853;SDS011;34673;52.808;17.856;2023-06-22T13:23:21;4.78;;;2.03;;
48853;SDS011;34673;52.808;17.856;2023-06-22T13:25:48;4.43;;;2.30;;
48853;SDS011;34673;52.808;17.856;2023-06-22T13:28:15;3.50;;;2.00;;
48853;SDS011;34673;52.808;17.856;2023-06-22T13:30:54;6.75;;;2.10;;
48853;SDS011;34673;52.808;17.856;2023-06-22T13:33:21;5.95;;;2.10;;
48853;SDS011;34673;52.808;17.856;2023-06-22T13:35:48;3.67;;;1.67;;
48853;SDS011;34673;52.808;17.856;2023-06-22T13:38:16;6.63;;;2.13;;
48853;SDS011;34673;52.808;17.856;2023-06-22T13:40:44;7.30;;;2.60;;
48853;SDS011;34673;52.808;17.856;2023-06-22T13:43:11;5.15;;;2.05;;
48853;SDS011;34673;52.808;17.856;2023-06-22T13:45:38;4.13;;;2.03;;
48853;SDS011;34673;52.808;17.856;2023-06-22T13:48:06;4.38;;;2.17;;
48853;SDS011;34673;52.808;17.856;2023-06-22T13:50:33;5.40;;;2.10;;
48853;SDS011;34673;52.808;17.856;2023-06-22T13:53:00;4.65;;;2.00;;
48853;SDS011;34673;52.808;17.856;2023-06-22T13:55:28;4.47;;;2.50;;
48853;SDS011;34673;52.808;17.856;2023-06-22T13:57:55;4.10;;;2.45;;
48853;SDS011;34673;52.808;17.856;2023-06-22T14:00:22;9.10;;;2.55;;
48853;SDS011;34673;52.808;17.856;2023-06-22T14:02:49;4.68;;;2.17;;
48853;SDS011;34673;52.808;17.856;2023-06-22T14:05:18;4.38;;;2.33;;
48853;SDS011;34673;52.808;17.856;2023-06-22T14:07:45;4.90;;;2.20;;
48853;SDS011;34673;52.808;17.856;2023-06-22T14:10:12;6.78;;;2.13;;
48853;SDS011;34673;52.808;17.856;2023-06-22T14:12:39;5.70;;;2.25;;
48853;SDS011;34673;52.808;17.856;2023-06-22T14:15:07;3.35;;;2.00;;
48853;SDS011;34673;52.808;17.856;2023-06-22T14:17:34;3.97;;;2.08;;
48853;SDS011;34673;52.808;17.856;2023-06-22T14:20:02;4.20;;;2.35;;
48853;SDS011;34673;52.808;17.856;2023-06-22T14:22:30;3.88;;;2.25;;
48853;SDS011;34673;52.808;17.856;2023-06-22T14:24:57;4.28;;;2.50;;
48853;SDS011;34673;52.808;17.856;2023-06-22T14:27:25;4.15;;;2.40;;
48853;SDS011;34673;52.808;17.856;2023-06-22T14:29:52;4.05;;;2.20;;
48853;SDS011;34673;52.808;17.856;2023-06-22T14:32:19;5.40;;;2.20;;
48853;SDS011;34673;52.808;17.856;2023-06-22T14:34:47;3.88;;;2.00;;
48853;SDS011;34673;52.808;17.856;2023-06-22T14:37:16;4.05;;;2.42;;
48853;SDS011;34673;52.808;17.856;2023-06-22T14:39:43;4.15;;;2.20;;